Time;durP1;ratioP1;P1;durP2;ratioP2;P2;SDS_P1;SDS_P2;PMS_P1;PMS_P2;Temp;Humidity;BMP_temperature;BMP_pressure;BME280_temperature;BME280_humidity;BME280_pressure;Samples;Min_cycle;Max_cycle;Signal;HPM_P1;HPM_P2
2022/06/20 08:07:32;;;;;;;3.80;2.50;;;16.30;99.90;;;;;;5070648;28;20542;-75
2022/06/20 08:10:18;;;;;;;5.10;3.40;;;14.50;99.90;;;;;;5070594;28;20504;-77
2022/06/20 08:13:07;;;;;;;3.97;2.90;;;14.60;99.90;;;;;;5070523;28;20167;-76
2022/06/20 08:15:40;;;;;;;4.53;3.40;;;14.60;99.90;;;;;;5070502;28;20176;-76
2022/06/20 08:18:06;;;;;;;5.53;3.65;;;14.60;99.90;;;;;;5070504;28;20211;-76
2022/06/20 08:20:38;;;;;;;5.10;3.92;;;14.60;99.90;;;;;;5070458;28;20165;-76
2022/06/20 08:23:41;;;;;;;5.00;3.63;;;14.60;99.90;;;;;;5070338;28;20206;-77
2022/06/20 08:26:12;;;;;;;5.07;3.75;;;14.60;99.90;;;;;;5058924;28;20212;-78
2022/06/20 08:29:05;;;;;;;4.85;4.20;;;14.70;99.90;;;;;;5070239;28;20196;-78
2022/06/20 08:31:35;;;;;;;5.45;3.88;;;14.90;99.90;;;;;;5069268;28;20185;-78
2022/06/20 08:34:37;;;;;;;4.53;4.13;;;15.00;99.90;;;;;;5070157;28;20630;-76
2022/06/20 08:37:20;;;;;;;11.07;3.85;;;15.00;99.90;;;;;;5070102;28;20160;-78
2022/06/20 08:40:01;;;;;;;6.28;3.80;;;15.10;99.90;;;;;;5070055;28;20510;-78
2022/06/20 08:42:55;;;;;;;4.53;3.00;;;15.10;99.90;;;;;;5068520;28;20165;-78
2022/06/20 08:45:30;;;;;;;5.50;3.53;;;15.10;99.90;;;;;;5049909;28;20223;-77
2022/06/20 08:48:15;;;;;;;5.47;3.25;;;15.00;99.90;;;;;;5049797;28;20521;-79
2022/06/20 08:50:49;;;;;;;9.38;3.70;;;15.00;99.90;;;;;;5049874;28;20165;-77
2022/06/20 08:53:27;;;;;;;13.45;3.63;;;15.10;99.90;;;;;;5049745;28;20176;-77
2022/06/20 08:56:23;;;;;;;4.88;3.08;;;15.20;99.90;;;;;;5048465;28;20638;-78
2022/06/20 08:59:19;;;;;;;4.60;2.97;;;15.20;99.90;;;;;;5049592;28;20184;-78
2022/06/20 09:02:05;;;;;;;4.88;2.55;;;15.20;99.90;;;;;;5049628;28;20283;-76
2022/06/20 09:04:39;;;;;;;7.45;2.65;;;15.30;99.90;;;;;;5049588;28;20169;-72
2022/06/20 09:07:08;;;;;;;8.48;3.63;;;15.40;99.90;;;;;;5049344;28;20278;-71
2022/06/20 09:09:51;;;;;;;7.25;3.38;;;15.30;99.90;;;;;;5048250;28;20169;-71
2022/06/20 09:12:52;;;;;;;6.65;3.25;;;15.40;99.90;;;;;;5049918;28;20222;-71
2022/06/20 09:15:37;;;;;;;8.13;3.20;;;15.40;99.90;;;;;;5047917;28;20169;-71
2022/06/20 09:18:26;;;;;;;6.45;3.33;;;15.60;99.90;;;;;;5039305;28;20174;-74
2022/06/20 09:21:00;;;;;;;6.88;2.95;;;15.70;99.90;;;;;;5036054;28;20170;-74
2022/06/20 09:23:26;;;;;;;5.55;3.00;;;15.70;99.90;;;;;;5035895;28;20170;-71
2022/06/20 09:26:14;;;;;;;9.07;3.40;;;15.80;99.90;;;;;;5035875;28;20208;-77
2022/06/20 09:29:07;;;;;;;6.47;3.15;;;16.00;99.90;;;;;;5025241;28;20188;-81
2022/06/20 09:31:35;;;;;;;5.43;3.70;;;16.00;99.90;;;;;;5035706;28;20639;-85
2022/06/20 09:34:36;;;;;;;39.50;5.28;;;16.10;99.90;;;;;;5035802;28;20161;-83
2022/06/20 09:37:36;;;;;;;5.18;3.42;;;16.10;99.90;;;;;;5013831;28;20174;-80
2022/06/20 09:40:04;;;;;;;3.67;3.35;;;16.40;99.90;;;;;;5035733;28;20245;-81
2022/06/20 09:43:02;;;;;;;5.80;3.15;;;16.70;99.90;;;;;;5035628;28;20174;-79
2022/06/20 09:45:56;;;;;;;74.43;10.93;;;16.60;99.90;;;;;;5033882;28;20198;-81
2022/06/20 09:48:39;;;;;;;13.95;4.90;;;16.50;99.90;;;;;;5035549;28;20165;-80
2022/06/20 09:51:31;;;;;;;5.15;3.53;;;16.40;99.90;;;;;;5034231;28;20533;-82
2022/06/20 09:54:19;;;;;;;7.72;4.47;;;16.20;99.90;;;;;;5032180;28;20182;-72
2022/06/20 09:57:52;;;;;;;13.77;5.25;;;15.90;99.90;;;;;;5035305;28;20174;-71
2022/06/20 10:00:20;;;;;;;5.47;4.88;;;15.70;99.90;;;;;;4995942;28;20199;-71
2022/06/20 10:02:51;;;;;;;5.78;4.65;;;15.70;99.90;;;;;;5013312;28;20180;-70
2022/06/20 10:05:28;;;;;;;12.35;5.20;;;15.70;99.90;;;;;;5028879;28;20249;-66
2022/06/20 10:08:03;;;;;;;12.43;5.43;;;15.80;99.90;;;;;;5035381;28;20166;-66
2022/06/20 10:10:38;;;;;;;8.27;5.18;;;15.90;99.90;;;;;;5035603;28;20181;-66
2022/06/20 10:13:15;;;;;;;8.43;5.00;;;16.00;99.90;;;;;;5035338;28;20861;-66
2022/06/20 10:15:50;;;;;;;5.65;5.05;;;16.00;99.90;;;;;;5033858;28;20177;-66
2022/06/20 10:18:44;;;;;;;6.25;5.63;;;16.00;99.90;;;;;;5034717;28;20175;-66
2022/06/20 10:21:23;;;;;;;29.42;7.50;;;16.10;99.90;;;;;;5035118;28;20201;-66
2022/06/20 10:24:20;;;;;;;29.42;8.45;;;16.10;99.90;;;;;;5033828;28;20177;-66
2022/06/20 10:27:08;;;;;;;13.23;4.80;;;16.30;99.90;;;;;;5035165;28;20197;-66
2022/06/20 10:30:00;;;;;;;6.70;4.07;;;17.00;99.90;;;;;;5033777;28;20174;-75
2022/06/20 10:32:47;;;;;;;15.93;4.82;;;17.20;99.90;;;;;;5034578;28;20182;-69
2022/06/20 10:35:23;;;;;;;5.72;3.92;;;17.30;99.90;;;;;;5033387;28;20263;-71
2022/06/20 10:37:51;;;;;;;7.00;3.10;;;17.20;99.90;;;;;;5033377;28;20191;-70
2022/06/20 10:40:44;;;;;;;3.63;2.78;;;16.80;99.90;;;;;;5033121;28;20625;-70
2022/06/20 10:43:23;;;;;;;10.15;2.47;;;16.60;99.90;;;;;;5034489;28;20188;-70
2022/06/20 10:46:10;;;;;;;3.83;2.85;;;16.50;99.90;;;;;;5034327;28;20280;-69
2022/06/20 10:48:45;;;;;;;11.60;3.83;;;16.30;99.90;;;;;;5034379;28;20170;-71
2022/06/20 10:51:23;;;;;;;5.50;2.70;;;16.30;99.90;;;;;;5033285;28;20188;-70
2022/06/20 10:54:14;;;;;;;5.63;2.83;;;16.50;99.90;;;;;;5034283;28;20169;-70
2022/06/20 10:57:13;;;;;;;4.75;2.53;;;16.70;99.90;;;;;;5034377;28;20650;-69
2022/06/20 10:59:58;;;;;;;6.32;2.03;;;16.90;99.90;;;;;;5034156;28;20170;-69
2022/06/20 11:02:45;;;;;;;2.38;2.17;;;16.80;99.90;;;;;;5034180;28;20699;-70
2022/06/20 11:05:42;;;;;;;6.70;1.95;;;16.70;99.90;;;;;;5033938;28;20292;-70
2022/06/20 11:08:29;;;;;;;6.35;2.85;;;16.80;99.90;;;;;;5033929;28;20614;-70
2022/06/20 11:11:05;;;;;;;4.28;2.38;;;16.90;99.90;;;;;;5034009;28;20245;-70
2022/06/20 11:13:47;;;;;;;5.25;2.53;;;17.20;99.90;;;;;;5033885;28;20180;-71
2022/06/20 11:16:31;;;;;;;3.05;1.90;;;17.30;99.90;;;;;;5032531;28;20533;-70
2022/06/20 11:19:11;;;;;;;6.45;2.10;;;17.20;99.90;;;;;;5033883;28;20708;-70
2022/06/20 11:21:49;;;;;;;5.30;2.47;;;17.10;99.90;;;;;;5033894;28;20175;-73
2022/06/20 11:24:30;;;;;;;6.50;2.90;;;17.10;99.90;;;;;;5032221;28;20209;-76
2022/06/20 11:27:14;;;;;;;4.10;2.00;;;17.00;99.90;;;;;;5033628;28;20547;-76
2022/06/20 11:30:01;;;;;;;7.60;2.67;;;17.10;99.90;;;;;;5032233;28;20525;-76
2022/06/20 11:32:54;;;;;;;6.47;3.05;;;17.20;99.90;;;;;;5033493;28;20180;-76
2022/06/20 11:35:41;;;;;;;2.97;2.15;;;17.30;99.90;;;;;;5033617;28;20181;-79
2022/06/20 11:38:28;;;;;;;5.45;2.38;;;17.40;99.90;;;;;;5033380;28;20177;-77
2022/06/20 11:41:03;;;;;;;6.65;2.75;;;17.60;99.90;;;;;;5033252;28;20169;-77
2022/06/20 11:43:52;;;;;;;3.70;2.30;;;17.80;99.90;;;;;;5032162;28;20177;-72
2022/06/20 11:46:33;;;;;;;10.32;2.92;;;18.00;99.90;;;;;;5030204;28;20690;-75
2022/06/20 11:49:36;;;;;;;2.95;2.25;;;18.40;99.90;;;;;;5033364;28;20165;-75
2022/06/20 11:52:18;;;;;;;2.53;2.03;;;18.50;99.90;;;;;;5033383;28;20247;-73
2022/06/20 11:55:20;;;;;;;3.05;2.58;;;18.70;99.90;;;;;;5032056;28;20572;-72
2022/06/20 11:57:51;;;;;;;4.00;2.17;;;18.70;99.90;;;;;;5033348;28;20166;-73
2022/06/20 12:00:20;;;;;;;3.08;2.53;;;18.80;99.90;;;;;;5031950;28;20231;-74
2022/06/20 12:03:18;;;;;;;3.50;2.70;;;18.70;99.90;;;;;;5031938;28;20169;-82
2022/06/20 12:06:15;;;;;;;5.10;4.47;;;18.60;99.90;;;;;;5032833;28;20612;-84
2022/06/20 12:08:53;;;;;;;6.40;3.25;;;18.90;99.90;;;;;;5031931;28;20185;-84
2022/06/20 12:11:30;;;;;;;2.67;2.58;;;19.00;99.90;;;;;;5033234;28;20223;-85
2022/06/20 12:14:04;;;;;;;5.97;2.67;;;19.10;99.90;;;;;;5033065;28;20641;-85
2022/06/20 12:17:02;;;;;;;4.10;3.03;;;19.00;99.90;;;;;;5033233;28;20173;-83
2022/06/20 12:25:22;;;;;;;4.53;3.33;;;19.40;99.90;;;;;;5033121;28;20180;-85
2022/06/20 12:27:48;;;;;;;7.10;2.88;;;19.60;99.90;;;;;;5033062;28;20168;-82
2022/06/20 12:30:15;;;;;;;4.30;3.00;;;19.80;99.90;;;;;;5032782;28;20193;-82
2022/06/20 12:32:45;;;;;;;4.22;3.05;;;19.70;99.90;;;;;;5032889;28;20189;-82
2022/06/20 12:35:26;;;;;;;30.88;6.38;;;19.40;99.90;;;;;;5032973;28;20227;-76
2022/06/20 12:38:04;;;;;;;7.18;3.53;;;19.20;99.90;;;;;;5032895;28;20196;-72
2022/06/20 12:40:38;;;;;;;5.35;3.30;;;19.20;99.90;;;;;;5032893;28;20165;-72
2022/06/20 12:43:13;;;;;;;9.63;3.95;;;19.20;99.90;;;;;;5032722;28;20634;-82
2022/06/20 12:46:38;;;;;;;2.83;2.63;;;19.00;99.90;;;;;;5032888;28;20238;-81
2022/06/20 12:49:09;;;;;;;4.47;2.40;;;18.80;99.90;;;;;;5011085;28;20170;-84
2022/06/20 12:51:46;;;;;;;5.97;3.03;;;19.20;99.90;;;;;;5011061;28;20201;-82
2022/06/20 12:54:30;;;;;;;2.95;2.65;;;19.40;99.90;;;;;;5024151;28;20181;-79
2022/06/20 12:57:06;;;;;;;2.53;2.33;;;19.70;99.90;;;;;;5036608;28;20173;-79
2022/06/20 13:00:01;;;;;;;6.20;2.60;;;19.90;99.90;;;;;;5036586;28;20695;-80
2022/06/20 13:02:27;;;;;;;6.70;2.78;;;19.90;99.90;;;;;;5036559;28;20260;-79
2022/06/20 13:04:55;;;;;;;7.57;3.08;;;20.20;99.90;;;;;;5036292;28;20205;-81
2022/06/20 13:07:54;;;;;;;2.60;2.40;;;19.90;99.90;;;;;;5036344;28;20730;-80
2022/06/20 13:10:43;;;;;;;5.28;3.08;;;19.80;99.90;;;;;;5036254;28;20173;-80
2022/06/20 13:13:11;;;;;;;3.17;2.35;;;19.50;99.90;;;;;;5034151;28;20239;-91
2022/06/20 13:15:37;;;;;;;5.03;3.63;;;19.50;99.90;;;;;;5035504;28;20263;-86
2022/06/20 13:18:17;;;;;;;3.08;2.60;;;19.80;99.90;;;;;;5035276;28;20265;-79
2022/06/20 13:21:09;;;;;;;4.35;2.90;;;19.70;99.90;;;;;;5036072;28;20204;-72
2022/06/20 13:24:06;;;;;;;2.65;2.35;;;19.60;99.90;;;;;;5036012;28;20165;-72
2022/06/20 13:26:55;;;;;;;4.72;2.53;;;19.30;99.90;;;;;;5035816;28;20197;-72
2022/06/20 13:29:50;;;;;;;3.08;2.40;;;19.10;99.90;;;;;;5035873;28;20296;-72
2022/06/20 13:32:51;;;;;;;3.78;2.70;;;19.00;99.90;;;;;;5035937;28;20619;-73
2022/06/20 13:35:42;;;;;;;9.23;2.88;;;19.00;99.90;;;;;;5035856;28;20261;-72
2022/06/20 13:38:19;;;;;;;3.60;2.50;;;19.00;99.90;;;;;;5035900;28;20212;-74
2022/06/20 13:40:55;;;;;;;3.70;2.40;;;19.00;99.90;;;;;;5035756;28;20251;-73
2022/06/20 13:43:21;;;;;;;5.63;3.28;;;18.90;99.90;;;;;;5035781;28;20173;-73
2022/06/20 13:45:56;;;;;;;5.28;2.70;;;18.90;99.90;;;;;;5035511;28;20204;-74
2022/06/20 13:48:35;;;;;;;3.35;2.55;;;18.90;99.90;;;;;;5035682;28;20287;-73
2022/06/20 13:51:15;;;;;;;11.18;2.50;;;19.10;99.90;;;;;;5035494;28;20165;-73
2022/06/20 13:54:03;;;;;;;5.10;2.70;;;19.70;99.90;;;;;;5035542;28;20166;-73
2022/06/20 13:56:43;;;;;;;6.05;2.40;;;20.30;99.90;;;;;;5035481;28;20567;-74
2022/06/20 13:59:32;;;;;;;5.68;2.25;;;20.30;99.90;;;;;;5035499;28;20255;-74
2022/06/20 14:02:23;;;;;;;3.20;2.28;;;19.90;99.90;;;;;;5035430;28;20165;-73
2022/06/20 14:04:50;;;;;;;2.28;2.00;;;20.00;99.90;;;;;;5034920;28;20192;-73
2022/06/20 14:07:22;;;;;;;2.83;2.55;;;20.20;99.90;;;;;;5035215;28;20205;-73
2022/06/20 14:09:53;;;;;;;2.58;2.10;;;19.90;99.90;;;;;;5033970;28;20169;-73
2022/06/20 14:12:41;;;;;;;4.15;2.50;;;20.10;99.90;;;;;;5035168;28;20169;-80
2022/06/20 14:15:31;;;;;;;2.75;2.00;;;20.40;99.90;;;;;;5035197;28;20250;-80
2022/06/20 14:18:14;;;;;;;8.63;2.30;;;20.30;99.90;;;;;;5027953;28;20212;-79
2022/06/20 14:21:06;;;;;;;2.63;2.40;;;20.10;99.90;;;;;;5035075;28;20165;-79
2022/06/20 14:23:35;;;;;;;4.00;2.45;;;20.60;99.90;;;;;;5033641;28;20197;-79
2022/06/20 14:26:04;;;;;;;4.60;2.67;;;20.90;99.90;;;;;;5034870;28;20208;-80
2022/06/20 14:28:48;;;;;;;8.55;3.15;;;20.90;99.90;;;;;;5034816;28;20165;-80
2022/06/20 14:31:19;;;;;;;3.03;2.38;;;21.00;99.90;;;;;;5034713;28;20212;-81
2022/06/20 14:33:50;;;;;;;3.45;2.08;;;21.50;99.90;;;;;;5034733;28;20626;-82
2022/06/20 14:36:34;;;;;;;4.40;2.58;;;22.10;99.90;;;;;;5034738;28;20181;-84
2022/06/20 14:39:03;;;;;;;5.10;2.38;;;22.50;99.90;;;;;;5033497;28;20192;-81
2022/06/20 14:41:42;;;;;;;4.18;2.30;;;22.70;99.90;;;;;;5034613;28;20269;-83
2022/06/20 14:44:32;;;;;;;2.25;1.88;;;23.00;99.90;;;;;;5034515;28;20172;-84
2022/06/20 14:47:16;;;;;;;2.58;2.38;;;22.50;99.90;;;;;;5033201;28;20204;-81
2022/06/20 14:49:47;;;;;;;4.85;2.30;;;22.50;99.90;;;;;;5034511;28;20215;-72
2022/06/20 14:52:40;;;;;;;3.90;2.05;;;22.70;99.90;;;;;;5034438;28;20165;-71
2022/06/20 14:55:19;;;;;;;5.07;2.38;;;22.50;99.90;;;;;;5030637;28;20181;-75
2022/06/20 14:57:53;;;;;;;5.13;2.65;;;22.40;99.90;;;;;;5033089;28;20222;-75
2022/06/20 15:00:45;;;;;;;2.95;2.20;;;22.40;99.90;;;;;;5033049;28;20160;-76
2022/06/20 15:03:45;;;;;;;6.40;2.45;;;22.30;99.90;;;;;;5034255;28;20685;-76
2022/06/20 15:06:23;;;;;;;6.68;2.25;;;22.30;99.90;;;;;;5033895;28;20260;-77
2022/06/20 15:08:53;;;;;;;4.18;2.05;;;22.30;99.90;;;;;;5034114;28;20271;-76
2022/06/20 15:11:29;;;;;;;5.20;2.83;;;22.30;99.90;;;;;;5034048;28;20196;-78
2022/06/20 15:14:12;;;;;;;5.13;2.15;;;22.30;99.90;;;;;;5034015;28;20622;-79
2022/06/20 15:16:49;;;;;;;6.85;2.20;;;22.50;99.90;;;;;;5032314;28;20181;-75
2022/06/20 15:19:20;;;;;;;3.80;2.50;;;22.50;99.90;;;;;;5033953;28;20176;-78
2022/06/20 15:21:59;;;;;;;4.25;2.30;;;22.70;99.90;;;;;;5033803;28;20227;-78
2022/06/20 15:24:44;;;;;;;3.15;2.83;;;22.90;99.90;;;;;;5033934;28;20199;-79
2022/06/20 15:27:25;;;;;;;5.55;2.58;;;23.00;99.90;;;;;;5033836;28;20201;-76
2022/06/20 15:30:03;;;;;;;5.38;2.15;;;23.10;99.90;;;;;;5033865;28;20211;-77
2022/06/20 15:32:33;;;;;;;4.25;2.22;;;23.30;99.90;;;;;;5033915;28;20165;-77
2022/06/20 15:35:16;;;;;;;2.63;2.20;;;23.60;99.90;;;;;;5033734;28;20207;-79
2022/06/20 15:37:44;;;;;;;3.47;2.15;;;23.10;99.90;;;;;;5032413;28;20519;-79
2022/06/20 15:40:22;;;;;;;4.45;2.15;;;23.00;99.90;;;;;;5033613;28;20169;-75
2022/06/20 15:43:00;;;;;;;3.15;2.20;;;23.10;99.90;;;;;;5033611;28;20192;-79
2022/06/20 15:45:33;;;;;;;4.72;2.30;;;23.10;99.90;;;;;;5032205;28;20197;-80
2022/06/20 15:47:58;;;;;;;5.03;2.20;;;23.20;99.90;;;;;;5033453;28;20186;-68
2022/06/20 15:50:30;;;;;;;2.17;2.00;;;23.50;99.90;;;;;;5033400;28;20619;-81
2022/06/20 15:53:16;;;;;;;3.72;2.25;;;23.20;99.90;;;;;;5031661;28;20202;-78
2022/06/20 15:55:50;;;;;;;8.75;2.25;;;23.40;99.90;;;;;;5033068;28;20193;-80
2022/06/20 15:58:35;;;;;;;3.28;1.70;;;23.80;99.90;;;;;;5033353;28;20183;-79
2022/06/20 16:01:18;;;;;;;2.53;2.00;;;23.90;99.90;;;;;;5032114;28;20211;-80
2022/06/20 16:04:01;;;;;;;4.53;2.60;;;23.80;99.90;;;;;;5033315;28;20176;-83
2022/06/20 16:07:02;;;;;;;4.50;2.13;;;23.70;99.90;;;;;;5031915;28;20236;-80
2022/06/20 16:09:52;;;;;;;3.47;2.13;;;23.30;99.90;;;;;;5029211;28;20542;-79
2022/06/20 16:12:22;;;;;;;6.55;2.00;;;23.10;99.90;;;;;;5031972;28;20223;-79
2022/06/20 16:15:02;;;;;;;2.78;2.08;;;23.30;99.90;;;;;;5033201;28;20188;-82
2022/06/20 16:17:39;;;;;;;6.68;1.92;;;23.40;99.90;;;;;;5033194;28;20196;-80
2022/06/20 16:20:06;;;;;;;3.53;2.53;;;23.80;99.90;;;;;;5033147;28;20646;-80
2022/06/20 16:22:32;;;;;;;4.85;2.45;;;24.20;99.90;;;;;;5033125;28;20591;-81
2022/06/20 16:25:04;;;;;;;1.88;1.73;;;24.50;99.90;;;;;;5033104;28;20173;-81
2022/06/20 16:27:36;;;;;;;3.78;2.13;;;24.40;99.90;;;;;;5034332;28;20582;-80
2022/06/20 16:30:24;;;;;;;4.63;2.42;;;23.70;99.90;;;;;;5037101;28;20222;-83
2022/06/20 16:33:18;;;;;;;4.28;1.77;;;22.60;99.90;;;;;;5037062;28;20172;-82
2022/06/20 16:35:45;;;;;;;3.72;2.00;;;22.10;99.90;;;;;;5035005;28;20182;-81
2022/06/20 16:38:18;;;;;;;3.38;2.17;;;22.30;99.90;;;;;;5037007;28;20196;-81
2022/06/20 16:41:09;;;;;;;3.95;1.90;;;22.20;99.90;;;;;;5036873;28;20169;-82
2022/06/20 16:43:44;;;;;;;5.25;1.63;;;22.10;99.90;;;;;;5036891;28;20169;-82
2022/06/20 16:46:29;;;;;;;2.83;2.47;;;22.00;99.90;;;;;;5036789;28;20283;-82
2022/06/20 16:49:37;;;;;;;3.03;1.92;;;21.80;99.90;;;;;;5035515;28;20532;-82
2022/06/20 16:52:20;;;;;;;1.77;1.67;;;21.80;99.90;;;;;;5026517;28;20184;-82
2022/06/20 16:54:52;;;;;;;4.38;2.03;;;21.70;99.90;;;;;;5035481;28;20165;-81
2022/06/20 16:57:31;;;;;;;4.55;2.33;;;22.20;99.90;;;;;;5036586;28;20184;-82
2022/06/20 17:00:01;;;;;;;4.97;2.15;;;22.90;99.90;;;;;;5035304;28;20177;-81
2022/06/20 17:02:55;;;;;;;2.92;1.75;;;23.30;99.90;;;;;;5035336;28;20169;-82
2022/06/20 17:05:47;;;;;;;3.95;1.90;;;22.60;99.90;;;;;;5035415;28;20267;-82
2022/06/20 17:08:18;;;;;;;4.90;1.83;;;21.70;99.90;;;;;;5036485;28;20611;-82
2022/06/20 17:10:46;;;;;;;2.78;2.00;;;21.70;99.90;;;;;;5036447;28;20169;-81
2022/06/20 17:13:33;;;;;;;2.60;1.73;;;22.00;99.90;;;;;;5035106;28;20196;-82
2022/06/20 17:16:25;;;;;;;4.00;1.70;;;22.70;99.90;;;;;;5036159;28;20247;-82
2022/06/20 17:19:17;;;;;;;6.53;2.00;;;23.20;99.90;;;;;;5036304;28;20149;-82
2022/06/20 17:22:09;;;;;;;4.72;1.63;;;23.60;99.90;;;;;;5035166;28;20559;-81
2022/06/20 17:25:13;;;;;;;1.60;1.50;;;24.10;99.90;;;;;;5036198;28;20200;-82
2022/06/20 17:28:05;;;;;;;3.80;1.95;;;24.60;99.90;;;;;;5036044;28;20173;-82
2022/06/20 17:30:40;;;;;;;3.72;1.92;;;24.40;99.90;;;;;;5035915;28;20185;-82
2022/06/20 17:33:30;;;;;;;3.08;1.73;;;24.50;99.90;;;;;;5034741;28;20175;-81
2022/06/20 17:36:13;;;;;;;9.95;2.08;;;24.00;99.90;;;;;;5035963;28;20197;-82
2022/06/20 17:39:11;;;;;;;6.35;1.90;;;24.00;99.90;;;;;;5034155;28;20172;-82
2022/06/20 17:41:53;;;;;;;4.72;1.83;;;23.80;99.90;;;;;;5035899;28;20169;-81
2022/06/20 17:44:27;;;;;;;2.10;1.70;;;23.30;99.90;;;;;;5034523;28;20689;-82
2022/06/20 17:47:01;;;;;;;5.10;2.00;;;23.10;99.90;;;;;;5035667;28;20207;-82
2022/06/20 17:50:00;;;;;;;3.03;1.80;;;23.10;99.90;;;;;;5034395;28;20616;-83
2022/06/20 17:52:51;;;;;;;7.38;2.42;;;23.10;99.90;;;;;;5035647;28;20169;-81
2022/06/20 17:55:52;;;;;;;2.45;2.00;;;23.50;99.90;;;;;;5035383;28;20367;-82
2022/06/20 17:58:40;;;;;;;2.97;1.67;;;23.70;99.90;;;;;;5035584;28;20249;-82
2022/06/20 18:01:16;;;;;;;9.40;2.08;;;23.80;99.90;;;;;;5035562;28;20165;-82
2022/06/20 18:03:47;;;;;;;3.25;2.03;;;23.50;99.90;;;;;;5035437;28;20164;-82
2022/06/20 18:06:18;;;;;;;4.70;1.63;;;22.90;99.90;;;;;;5033808;28;20311;-82
2022/06/20 18:08:51;;;;;;;4.95;1.75;;;22.00;99.90;;;;;;5035314;28;20564;-82
2022/06/20 18:11:19;;;;;;;4.07;2.30;;;21.40;99.90;;;;;;5034015;28;20180;-83
2022/06/20 18:13:51;;;;;;;3.70;1.75;;;21.30;99.90;;;;;;5035212;28;20256;-82
2022/06/20 18:16:26;;;;;;;3.20;1.70;;;21.70;99.90;;;;;;5035129;28;20188;-81
2022/06/20 18:18:58;;;;;;;3.47;1.90;;;21.50;99.90;;;;;;5033830;28;20180;-82
2022/06/20 18:21:40;;;;;;;2.63;1.65;;;21.30;99.90;;;;;;5035089;28;20178;-82
2022/06/20 18:24:38;;;;;;;1.80;1.70;;;21.20;99.90;;;;;;5034999;28;20173;-81
2022/06/20 18:27:13;;;;;;;4.28;1.80;;;21.50;99.90;;;;;;5015836;28;20315;-82
2022/06/20 18:29:40;;;;;;;4.05;1.52;;;21.60;99.90;;;;;;5033577;28;20533;-82
2022/06/20 18:32:13;;;;;;;4.10;1.70;;;21.80;99.90;;;;;;5034914;28;20173;-81
2022/06/20 18:34:40;;;;;;;4.15;2.30;;;22.20;99.90;;;;;;5034925;28;20603;-81
2022/06/20 18:37:17;;;;;;;4.32;1.70;;;22.40;99.90;;;;;;5034737;28;20180;-82
2022/06/20 18:40:05;;;;;;;2.20;2.10;;;22.60;99.90;;;;;;5034722;28;20521;-82
2022/06/20 18:42:50;;;;;;;3.05;1.50;;;22.40;99.90;;;;;;5034660;28;20168;-83
2022/06/20 18:45:35;;;;;;;4.00;1.73;;;22.40;99.90;;;;;;5034670;28;20161;-82
2022/06/20 18:48:51;;;;;;;4.00;2.00;;;22.50;99.90;;;;;;5034556;28;20523;-82
2022/06/20 18:51:27;;;;;;;2.13;1.50;;;22.90;99.90;;;;;;5024756;28;20188;-82
2022/06/20 18:53:52;;;;;;;6.38;2.42;;;22.80;99.90;;;;;;5034410;28;20164;-81
2022/06/20 18:56:23;;;;;;;2.13;1.45;;;22.70;99.90;;;;;;5034269;28;20176;-82
2022/06/20 18:59:19;;;;;;;2.00;1.50;;;22.90;99.90;;;;;;5034214;28;20169;-81
2022/06/20 19:02:08;;;;;;;4.00;1.70;;;22.80;99.90;;;;;;5034160;28;20526;-81
2022/06/20 19:05:07;;;;;;;3.22;1.80;;;22.70;99.90;;;;;;5034066;28;20634;-81
2022/06/20 19:07:51;;;;;;;3.95;1.70;;;22.60;99.90;;;;;;5033970;28;20212;-82
2022/06/20 19:10:41;;;;;;;1.70;1.60;;;22.40;99.90;;;;;;5034087;28;20248;-81
2022/06/20 19:13:44;;;;;;;6.93;1.60;;;22.00;99.90;;;;;;5033847;28;20223;-81
2022/06/20 19:17:04;;;;;;;4.13;1.80;;;21.50;99.90;;;;;;5032408;28;20169;-81
2022/06/20 19:19:48;;;;;;;1.88;1.63;;;21.10;99.90;;;;;;5011799;28;20182;-81
2022/06/20 19:22:31;;;;;;;1.75;1.48;;;20.70;99.90;;;;;;5031806;28;20189;-80
2022/06/20 19:25:10;;;;;;;3.22;1.95;;;20.40;99.90;;;;;;5033683;28;20179;-79
2022/06/20 19:27:43;;;;;;;5.97;2.03;;;20.10;99.90;;;;;;5033642;28;20208;-81
2022/06/20 19:30:13;;;;;;;1.65;1.40;;;19.90;99.90;;;;;;5033634;28;20189;-81
